sensor_id;sensor_type;location;lat;lon;timestamp;pressure;altitude;pressure_sealevel;temperature;humidity
68199;BME280;55021;51.554;17.044;2023-07-24T00:23:11;99845.69;;;17.66;62.93
68199;BME280;55021;51.554;17.044;2023-07-24T00:38:14;99819.34;;;18.69;57.87
68199;BME280;55021;51.554;17.044;2023-07-24T00:53:17;99833.09;;;17.59;63.35
68199;BME280;55021;51.554;17.044;2023-07-24T01:08:20;99820.69;;;17.25;64.06
68199;BME280;55021;51.554;17.044;2023-07-24T01:23:27;99837.19;;;17.74;63.30
68199;BME280;55021;51.554;17.044;2023-07-24T01:38:36;99799.03;;;18.34;60.63
68199;BME280;55021;51.554;17.044;2023-07-24T01:53:39;99816.88;;;19.09;59.06
68199;BME280;55021;51.554;17.044;2023-07-24T02:08:42;99805.41;;;19.30;58.86
68199;BME280;55021;51.554;17.044;2023-07-24T02:23:44;99802.69;;;18.82;58.80
68199;BME280;55021;51.554;17.044;2023-07-24T02:38:46;99779.53;;;19.20;58.34
68199;BME280;55021;51.554;17.044;2023-07-24T02:53:49;99770.69;;;19.82;55.64
68199;BME280;55021;51.554;17.044;2023-07-24T03:08:52;99766.13;;;19.88;55.55
68199;BME280;55021;51.554;17.044;2023-07-24T03:23:54;99755.25;;;20.04;54.42
68199;BME280;55021;51.554;17.044;2023-07-24T03:38:57;99781.94;;;20.15;54.25
68199;BME280;55021;51.554;17.044;2023-07-24T03:53:59;99769.78;;;20.51;53.63
68199;BME280;55021;51.554;17.044;2023-07-24T04:09:02;99764.31;;;20.91;53.40
68199;BME280;55021;51.554;17.044;2023-07-24T04:24:05;99756.38;;;21.39;51.34
68199;BME280;55021;51.554;17.044;2023-07-24T04:39:08;99749.88;;;22.17;47.97
68199;BME280;55021;51.554;17.044;2023-07-24T04:54:10;99742.19;;;22.19;48.48
68199;BME280;55021;51.554;17.044;2023-07-24T05:09:17;99740.47;;;21.96;49.43
68199;BME280;55021;51.554;17.044;2023-07-24T05:24:20;99651.81;;;22.15;49.41
68199;BME280;55021;51.554;17.044;2023-07-24T05:39:22;99690.13;;;22.76;48.43
68199;BME280;55021;51.554;17.044;2023-07-24T05:54:25;99688.44;;;23.65;47.09
68199;BME280;55021;51.554;17.044;2023-07-24T06:09:27;99669.59;;;23.62;47.81
68199;BME280;55021;51.554;17.044;2023-07-24T06:24:29;99613.88;;;24.93;43.17
68199;BME280;55021;51.554;17.044;2023-07-24T06:39:32;99631.94;;;25.51;43.19
68199;BME280;55021;51.554;17.044;2023-07-24T06:54:34;99638.06;;;26.32;41.39
68199;BME280;55021;51.554;17.044;2023-07-24T07:09:36;99645.50;;;26.52;41.00
68199;BME280;55021;51.554;17.044;2023-07-24T07:24:39;99635.44;;;26.66;41.29
68199;BME280;55021;51.554;17.044;2023-07-24T07:39:41;99642.47;;;26.53;40.07
68199;BME280;55021;51.554;17.044;2023-07-24T07:54:47;99587.53;;;26.74;38.97
68199;BME280;55021;51.554;17.044;2023-07-24T08:09:49;99617.66;;;27.35;38.00
68199;BME280;55021;51.554;17.044;2023-07-24T08:24:52;99610.63;;;28.18;36.41
68199;BME280;55021;51.554;17.044;2023-07-24T08:39:54;99560.44;;;27.47;36.59
68199;BME280;55021;51.554;17.044;2023-07-24T08:55:01;99592.38;;;28.68;35.02
68199;BME280;55021;51.554;17.044;2023-07-24T09:10:06;99589.81;;;28.11;36.32
68199;BME280;55021;51.554;17.044;2023-07-24T09:25:11;99498.28;;;27.99;36.26
68199;BME280;55021;51.554;17.044;2023-07-24T09:40:37;99532.25;;;29.27;33.81
68199;BME280;55021;51.554;17.044;2023-07-24T09:55:45;99517.94;;;30.37;32.06
68199;BME280;55021;51.554;17.044;2023-07-24T10:10:49;99533.94;;;29.82;32.81
68199;BME280;55021;51.554;17.044;2023-07-24T10:25:52;99435.00;;;31.08;28.95
68199;BME280;55021;51.554;17.044;2023-07-24T10:41:01;99503.28;;;31.99;28.09
68199;BME280;55021;51.554;17.044;2023-07-24T10:56:06;99490.44;;;30.97;29.10
68199;BME280;55021;51.554;17.044;2023-07-24T11:11:09;99465.09;;;32.63;26.50
68199;BME280;55021;51.554;17.044;2023-07-24T11:26:12;99421.13;;;32.76;25.90
68199;BME280;55021;51.554;17.044;2023-07-24T11:41:17;99395.06;;;32.50;25.44
68199;BME280;55021;51.554;17.044;2023-07-24T11:56:20;99395.31;;;33.87;24.15
68199;BME280;55021;51.554;17.044;2023-07-24T12:11:25;99362.66;;;32.69;24.81
68199;BME280;55021;51.554;17.044;2023-07-24T12:26:27;99286.75;;;33.53;23.87
68199;BME280;55021;51.554;17.044;2023-07-24T12:41:30;99309.09;;;33.71;23.06
68199;BME280;55021;51.554;17.044;2023-07-24T12:56:33;99293.19;;;32.95;26.35
68199;BME280;55021;51.554;17.044;2023-07-24T13:11:35;99264.97;;;31.65;28.19
68199;BME280;55021;51.554;17.044;2023-07-24T13:26:37;99302.75;;;31.11;29.69
68199;BME280;55021;51.554;17.044;2023-07-24T13:41:40;99284.22;;;30.93;29.38
68199;BME280;55021;51.554;17.044;2023-07-24T13:56:42;99256.66;;;31.25;30.39
68199;BME280;55021;51.554;17.044;2023-07-24T14:11:45;99242.81;;;31.46;30.42
68199;BME280;55021;51.554;17.044;2023-07-24T14:26:48;99234.34;;;30.16;31.55
68199;BME280;55021;51.554;17.044;2023-07-24T14:41:50;99124.84;;;30.23;31.33
68199;BME280;55021;51.554;17.044;2023-07-24T14:56:57;99178.53;;;29.80;32.26
68199;BME280;55021;51.554;17.044;2023-07-24T15:12:10;99185.56;;;29.33;32.89
68199;BME280;55021;51.554;17.044;2023-07-24T15:27:12;99080.22;;;28.31;34.30
68199;BME280;55021;51.554;17.044;2023-07-24T15:42:30;99143.16;;;30.46;30.90
68199;BME280;55021;51.554;17.044;2023-07-24T15:57:37;99111.28;;;30.47;31.43
68199;BME280;55021;51.554;17.044;2023-07-24T16:12:39;99098.25;;;29.94;33.15
68199;BME280;55021;51.554;17.044;2023-07-24T16:27:43;99092.38;;;30.69;31.42
68199;BME280;55021;51.554;17.044;2023-07-24T16:42:46;99090.03;;;29.67;32.96
68199;BME280;55021;51.554;17.044;2023-07-24T16:57:49;99046.53;;;28.77;35.38
68199;BME280;55021;51.554;17.044;2023-07-24T17:12:52;99053.97;;;28.19;36.16
68199;BME280;55021;51.554;17.044;2023-07-24T17:27:57;98945.25;;;27.29;37.75
68199;BME280;55021;51.554;17.044;2023-07-24T17:43:00;99043.34;;;27.94;38.78
68199;BME280;55021;51.554;17.044;2023-07-24T17:58:03;99025.22;;;27.96;38.56
68199;BME280;55021;51.554;17.044;2023-07-24T18:13:05;99027.34;;;27.99;39.17
68199;BME280;55021;51.554;17.044;2023-07-24T18:28:08;99007.13;;;27.94;39.70
68199;BME280;55021;51.554;17.044;2023-07-24T18:43:11;99033.03;;;26.89;42.15
68199;BME280;55021;51.554;17.044;2023-07-24T18:58:13;99045.84;;;26.71;41.78
68199;BME280;55021;51.554;17.044;2023-07-24T19:13:16;98996.38;;;25.93;43.08
68199;BME280;55021;51.554;17.044;2023-07-24T19:28:19;99007.19;;;25.71;44.85
68199;BME280;55021;51.554;17.044;2023-07-24T19:43:21;99005.59;;;24.84;46.50
68199;BME280;55021;51.554;17.044;2023-07-24T19:58:26;98917.28;;;24.00;47.14
68199;BME280;55021;51.554;17.044;2023-07-24T20:13:29;99010.06;;;24.36;48.41
68199;BME280;55021;51.554;17.044;2023-07-24T20:28:31;99013.06;;;24.45;49.42
68199;BME280;55021;51.554;17.044;2023-07-24T20:43:34;99035.56;;;23.74;51.31
68199;BME280;55021;51.554;17.044;2023-07-24T20:58:36;98935.38;;;22.93;53.04
68199;BME280;55021;51.554;17.044;2023-07-24T21:13:39;98917.44;;;22.30;54.18
68199;BME280;55021;51.554;17.044;2023-07-24T21:28:50;98963.00;;;22.27;55.51
68199;BME280;55021;51.554;17.044;2023-07-24T21:43:53;98972.72;;;22.45;55.91
68199;BME280;55021;51.554;17.044;2023-07-24T21:58:57;98985.03;;;21.97;57.73
68199;BME280;55021;51.554;17.044;2023-07-24T22:14:00;99017.50;;;21.23;59.29
68199;BME280;55021;51.554;17.044;2023-07-24T22:29:03;99063.19;;;22.08;57.60
68199;BME280;55021;51.554;17.044;2023-07-24T22:44:05;99103.41;;;22.76;56.35
68199;BME280;55021;51.554;17.044;2023-07-24T22:59:21;99126.91;;;22.83;56.36
68199;BME280;55021;51.554;17.044;2023-07-24T23:14:24;99072.75;;;21.85;57.00
68199;BME280;55021;51.554;17.044;2023-07-24T23:29:26;99131.34;;;22.02;56.79
68199;BME280;55021;51.554;17.044;2023-07-24T23:44:29;99134.84;;;21.46;57.71
68199;BME280;55021;51.554;17.044;2023-07-24T23:59:32;99145.59;;;21.10;57.67
